createdAt,value
2023-01-25T08:46:42.633Z,25
2023-01-25T08:47:42.467Z,25
2023-01-25T08:48:42.139Z,30
2023-01-25T08:49:43.306Z,30
2023-01-25T08:50:42.577Z,30
2023-01-25T08:51:42.245Z,30
2023-01-25T08:52:42.961Z,30
2023-01-25T08:53:42.481Z,30
2023-01-25T08:54:43.142Z,30
2023-01-25T08:55:42.838Z,25
2023-01-25T08:56:43.026Z,30
2023-01-25T08:57:42.733Z,25
2023-01-25T08:58:43.503Z,30
2023-01-25T08:59:42.197Z,30
2023-01-25T09:00:43.523Z,30
2023-01-25T09:01:42.125Z,30
2023-01-25T09:02:43.131Z,25
2023-01-25T09:03:43.799Z,30
2023-01-25T09:04:42.583Z,30
2023-01-25T09:05:42.595Z,30
2023-01-25T09:06:42.766Z,35
2023-01-25T09:07:43.361Z,35
2023-01-25T09:08:43.688Z,35
2023-01-25T09:09:42.642Z,40
2023-01-25T09:10:43.364Z,40
2023-01-25T09:11:42.318Z,40
2023-01-25T09:12:42.980Z,40
2023-01-25T09:13:42.762Z,40
2023-01-25T09:14:42.150Z,40
2023-01-25T09:15:41.678Z,35
2023-01-25T09:16:42.539Z,35
2023-01-25T09:17:42.354Z,40
2023-01-25T09:18:42.681Z,40
2023-01-25T09:19:43.873Z,40
2023-01-25T09:20:44.301Z,40
2023-01-25T09:21:42.375Z,35
2023-01-25T09:22:42.212Z,35
2023-01-25T09:24:13.465Z,35
2023-01-25T09:24:45.931Z,35
2023-01-25T09:25:42.527Z,35
2023-01-25T09:26:44.485Z,35
2023-01-25T09:27:44.575Z,35
2023-01-25T09:28:42.339Z,40
2023-01-25T09:30:04.259Z,40
2023-01-25T09:31:28.952Z,40
2023-01-25T09:31:44.289Z,40
2023-01-25T09:32:44.056Z,40
2023-01-25T09:33:42.727Z,40
2023-01-25T09:34:43.439Z,40
2023-01-25T09:35:44.372Z,45
2023-01-25T09:36:42.525Z,45
2023-01-25T09:37:42.840Z,45
2023-01-25T09:38:42.568Z,45
2023-01-25T09:39:43.099Z,45
2023-01-25T09:40:42.989Z,45
2023-01-25T09:41:42.475Z,45
2023-01-25T09:42:43.051Z,45
2023-01-25T09:43:43.090Z,45
2023-01-25T09:44:42.207Z,50
2023-01-25T09:45:43.721Z,50
2023-01-25T09:46:42.735Z,55
2023-01-25T09:47:41.987Z,55
2023-01-25T09:48:42.722Z,55
2023-01-25T09:49:42.465Z,55
2023-01-25T09:50:42.898Z,55
2023-01-25T09:51:42.668Z,60
2023-01-25T09:52:42.291Z,60
2023-01-25T09:53:43.757Z,55
2023-01-25T09:54:55.385Z,50
2023-01-25T09:55:43.291Z,50
2023-01-25T09:56:42.867Z,55
2023-01-25T09:57:43.763Z,55
2023-01-25T09:58:43.044Z,45
2023-01-25T09:59:44.223Z,50
2023-01-25T10:00:43.126Z,50
2023-01-25T10:01:50.470Z,60
2023-01-25T10:02:44.011Z,60
2023-01-25T10:03:43.909Z,65
2023-01-25T10:04:43.528Z,65
2023-01-25T10:05:42.601Z,65
2023-01-25T10:06:59.970Z,65
2023-01-25T10:07:43.281Z,65
2023-01-25T10:08:42.801Z,70
2023-01-25T10:09:42.821Z,65
2023-01-25T10:10:42.675Z,65
2023-01-25T10:11:42.301Z,65
2023-01-25T10:12:43.299Z,70
2023-01-25T10:13:42.290Z,70
2023-01-25T10:14:43.526Z,65
2023-01-25T10:15:44.296Z,70
2023-01-25T10:16:43.511Z,70
2023-01-25T10:17:42.522Z,70
2023-01-25T10:18:42.322Z,75
2023-01-25T10:19:42.307Z,75
2023-01-25T10:20:42.750Z,75
2023-01-25T10:21:41.842Z,75
2023-01-25T10:22:43.052Z,70
2023-01-25T10:23:42.716Z,70
2023-01-25T10:24:42.555Z,75
2023-01-25T10:25:43.551Z,70
2023-01-25T10:26:42.551Z,70
2023-01-25T10:27:42.663Z,70
2023-01-25T10:28:42.898Z,70
2023-01-25T10:29:43.040Z,65
2023-01-25T10:30:43.169Z,65
2023-01-25T10:31:43.612Z,60
2023-01-25T10:33:00.474Z,60
2023-01-25T10:33:47.368Z,55
2023-01-25T10:35:02.830Z,55
2023-01-25T10:35:54.115Z,55
2023-01-25T10:36:42.815Z,60
2023-01-25T10:37:42.139Z,65
2023-01-25T10:38:43.382Z,65
2023-01-25T10:39:42.595Z,70
2023-01-25T10:40:42.137Z,70
2023-01-25T10:41:43.443Z,70
2023-01-25T10:42:43.522Z,70
2023-01-25T10:43:42.766Z,70
2023-01-25T10:44:42.193Z,75
2023-01-25T10:45:42.838Z,75
2023-01-25T10:46:42.897Z,70
2023-01-25T10:47:42.505Z,70
2023-01-25T10:48:43.538Z,70
2023-01-25T10:49:43.614Z,65
2023-01-25T10:50:42.417Z,65
2023-01-25T10:51:43.483Z,60
2023-01-25T10:52:43.128Z,60
2023-01-25T10:53:42.769Z,55
2023-01-25T10:54:44.300Z,60
2023-01-25T10:55:42.426Z,60
2023-01-25T10:56:43.085Z,60
2023-01-25T10:57:43.145Z,60
2023-01-25T10:58:42.426Z,60
2023-01-25T10:59:42.949Z,60
2023-01-25T11:00:42.969Z,65
2023-01-25T11:01:42.681Z,65
2023-01-25T11:02:43.003Z,70
2023-01-25T11:03:42.743Z,65
2023-01-25T11:04:44.297Z,70
2023-01-25T11:05:43.951Z,65
2023-01-25T11:06:42.868Z,65
2023-01-25T11:07:44.023Z,70
2023-01-25T11:08:42.942Z,70
2023-01-25T11:09:43.336Z,70
2023-01-25T11:10:43.688Z,75
2023-01-25T11:11:46.031Z,70
2023-01-25T11:12:43.187Z,75
2023-01-25T11:13:43.037Z,75
2023-01-25T11:14:42.381Z,70
2023-01-25T11:15:43.514Z,70
2023-01-25T11:16:43.064Z,70
2023-01-25T11:17:42.497Z,70
2023-01-25T11:18:43.976Z,75
2023-01-25T11:19:42.679Z,75
2023-01-25T11:20:44.070Z,75
2023-01-25T11:21:42.512Z,75
2023-01-25T11:22:43.206Z,70
2023-01-25T11:23:43.145Z,70
2023-01-25T11:24:43.728Z,70
2023-01-25T11:25:42.521Z,70
2023-01-25T11:26:47.942Z,70
2023-01-25T11:27:43.684Z,70
2023-01-25T11:28:42.334Z,65
2023-01-25T11:29:42.952Z,65
2023-01-25T11:30:43.337Z,70
2023-01-25T11:31:44.507Z,70
2023-01-25T11:32:43.209Z,70
2023-01-25T11:33:43.041Z,70
2023-01-25T11:34:45.713Z,70
2023-01-25T11:35:43.656Z,70
2023-01-25T11:36:44.160Z,75
2023-01-25T11:37:42.863Z,70
2023-01-25T11:38:42.481Z,70
2023-01-25T11:39:42.791Z,70
2023-01-25T11:40:43.437Z,65
2023-01-25T11:41:44.925Z,65
2023-01-25T11:42:44.280Z,70
2023-01-25T11:43:43.164Z,70
2023-01-25T11:44:43.287Z,70
2023-01-25T11:45:44.075Z,70
2023-01-25T11:46:45.594Z,70
2023-01-25T11:47:43.894Z,75
2023-01-25T11:48:42.998Z,75
2023-01-25T11:49:42.788Z,75
2023-01-25T11:50:43.586Z,70
2023-01-25T11:51:43.172Z,70
2023-01-25T11:52:43.817Z,70
2023-01-25T11:53:42.620Z,70
2023-01-25T11:54:42.781Z,70
2023-01-25T11:55:43.121Z,70
2023-01-25T11:56:44.614Z,65
2023-01-25T11:57:45.752Z,65
2023-01-25T11:58:44.424Z,65
2023-01-25T11:59:42.624Z,60
2023-01-25T12:00:43.237Z,55
2023-01-25T12:01:42.931Z,55
2023-01-25T12:02:43.704Z,60
2023-01-25T12:03:43.024Z,60
2023-01-25T12:04:42.997Z,60
2023-01-25T12:05:42.945Z,60
2023-01-25T12:06:44.112Z,60
2023-01-25T12:07:43.987Z,65
2023-01-25T12:08:43.958Z,65
2023-01-25T12:09:44.145Z,65
2023-01-25T12:10:42.091Z,65
2023-01-25T12:11:42.644Z,65
2023-01-25T12:12:43.438Z,65
2023-01-25T12:13:43.305Z,70
2023-01-25T12:14:43.829Z,70
2023-01-25T12:15:43.279Z,70
2023-01-25T12:16:43.981Z,65
2023-01-25T12:17:43.062Z,60
2023-01-25T12:18:43.871Z,60
2023-01-25T12:19:43.380Z,60
2023-01-25T12:20:43.376Z,60
2023-01-25T12:21:43.412Z,60
2023-01-25T12:22:42.651Z,60
2023-01-25T12:23:42.947Z,60
2023-01-25T12:24:43.092Z,60
2023-01-25T12:25:43.074Z,55
2023-01-25T12:26:43.653Z,55
2023-01-25T12:27:42.425Z,55
2023-01-25T12:28:42.623Z,55
2023-01-25T12:29:43.801Z,55
2023-01-25T12:30:43.590Z,55
2023-01-25T12:31:43.680Z,50
2023-01-25T12:32:45.605Z,50
2023-01-25T12:33:42.687Z,50
2023-01-25T12:34:42.731Z,55
2023-01-25T12:35:43.155Z,65
2023-01-25T12:36:43.062Z,70
2023-01-25T12:37:43.378Z,70
2023-01-25T12:38:44.250Z,70
2023-01-25T12:39:42.834Z,75
2023-01-25T12:40:43.974Z,75
2023-01-25T12:41:42.961Z,70
2023-01-25T12:42:43.398Z,80
2023-01-25T12:43:43.253Z,75
2023-01-25T12:44:43.140Z,75
2023-01-25T12:45:43.456Z,70
2023-01-25T12:46:44.493Z,70
2023-01-25T12:47:43.138Z,65
2023-01-25T12:48:44.587Z,65
2023-01-25T12:49:42.924Z,65
2023-01-25T12:50:43.384Z,70
2023-01-25T12:51:43.649Z,70
2023-01-25T12:52:42.724Z,65
2023-01-25T12:53:44.912Z,65
2023-01-25T12:54:43.000Z,65
2023-01-25T12:55:42.977Z,65
2023-01-25T12:56:43.574Z,65
2023-01-25T12:57:42.802Z,65
2023-01-25T12:58:47.931Z,60
2023-01-25T12:59:43.836Z,60
2023-01-25T13:00:43.615Z,60
2023-01-25T13:01:43.359Z,60
2023-01-25T13:02:43.634Z,60
2023-01-25T13:03:43.232Z,55
2023-01-25T13:04:43.725Z,55
2023-01-25T13:05:42.756Z,50
2023-01-25T13:06:43.557Z,50
2023-01-25T13:07:42.926Z,50
2023-01-25T13:08:43.337Z,55
2023-01-25T13:09:43.460Z,55
2023-01-25T13:10:43.788Z,55
2023-01-25T13:11:43.144Z,55
2023-01-25T13:12:43.110Z,50
2023-01-25T13:13:42.515Z,50
2023-01-25T13:14:43.202Z,50
2023-01-25T13:15:44.440Z,45
2023-01-25T13:16:43.279Z,50
2023-01-25T13:17:47.913Z,50
2023-01-25T13:18:43.383Z,50
2023-01-25T13:19:43.351Z,50
2023-01-25T13:20:42.954Z,55
2023-01-25T13:21:43.701Z,55
2023-01-25T13:22:45.281Z,50
2023-01-25T13:23:44.265Z,50
2023-01-25T13:24:42.797Z,50
2023-01-25T13:25:44.297Z,50
2023-01-25T13:26:43.756Z,55
2023-01-25T13:27:42.528Z,55
2023-01-25T13:28:43.750Z,55
2023-01-25T13:29:44.920Z,55
2023-01-25T13:30:43.413Z,55
2023-01-25T13:32:04.419Z,50
2023-01-25T13:32:43.074Z,55
2023-01-25T13:33:43.922Z,50
2023-01-25T13:34:43.559Z,55
2023-01-25T13:35:43.832Z,55
2023-01-25T13:36:43.754Z,55
2023-01-25T13:37:43.087Z,50
2023-01-25T13:38:43.413Z,50
2023-01-25T13:39:43.285Z,50
2023-01-25T13:40:42.388Z,50
2023-01-25T13:41:43.224Z,50
2023-01-25T13:42:43.131Z,55
2023-01-25T13:43:42.840Z,55
2023-01-25T13:44:43.688Z,55
2023-01-25T13:45:43.896Z,50
2023-01-25T13:46:42.886Z,50
2023-01-25T13:47:44.009Z,50
2023-01-25T13:48:46.210Z,50
2023-01-25T13:49:45.424Z,50
2023-01-25T13:50:43.800Z,50
2023-01-25T13:51:43.498Z,55
2023-01-25T13:52:44.826Z,55
2023-01-25T13:53:42.613Z,55
2023-01-25T13:54:45.161Z,55
2023-01-25T13:55:43.152Z,55
2023-01-25T13:56:43.182Z,55
2023-01-25T13:57:43.419Z,50
2023-01-25T13:58:43.269Z,50
2023-01-25T13:59:43.308Z,45
2023-01-25T14:00:42.713Z,45
2023-01-25T14:01:42.847Z,40
2023-01-25T14:02:44.809Z,40
2023-01-25T14:03:43.312Z,40
2023-01-25T14:04:43.086Z,45
2023-01-25T14:05:43.832Z,45
2023-01-25T14:06:43.473Z,45
2023-01-25T14:07:43.741Z,45
2023-01-25T14:08:43.724Z,45
2023-01-25T14:09:43.508Z,45
2023-01-25T14:10:43.833Z,45
2023-01-25T14:11:43.811Z,45
2023-01-25T14:12:43.193Z,45
2023-01-25T14:13:43.712Z,45
2023-01-25T14:14:42.978Z,45
2023-01-25T14:15:43.560Z,40
2023-01-25T14:16:43.933Z,40
2023-01-25T14:17:44.662Z,40
2023-01-25T14:18:44.138Z,35
2023-01-25T14:19:43.713Z,35
2023-01-25T14:20:43.116Z,35
2023-01-25T14:21:43.389Z,35
2023-01-25T14:22:43.321Z,35
2023-01-25T14:23:42.824Z,30
2023-01-25T14:24:43.288Z,30
2023-01-25T14:25:43.054Z,30
2023-01-25T14:26:43.296Z,30
2023-01-25T14:27:43.879Z,30
2023-01-25T14:28:44.360Z,30
2023-01-25T14:29:45.102Z,25
2023-01-25T14:30:43.266Z,25
2023-01-25T14:31:43.845Z,25
2023-01-25T14:32:43.032Z,25
2023-01-25T14:33:43.250Z,30
2023-01-25T14:34:43.729Z,30
2023-01-25T14:36:30.699Z,25
2023-01-25T14:36:43.322Z,25
2023-01-25T14:37:44.437Z,25
2023-01-25T14:38:43.146Z,25
2023-01-25T14:39:43.017Z,25
2023-01-25T14:40:42.812Z,25
2023-01-25T14:42:00.759Z,25
2023-01-25T14:42:43.162Z,25
2023-01-25T14:43:42.771Z,25
2023-01-25T14:44:43.886Z,20
2023-01-25T14:45:43.303Z,20
2023-01-25T14:46:43.181Z,20
2023-01-25T14:47:59.346Z,20
2023-01-25T14:48:43.642Z,20
2023-01-25T14:49:43.141Z,15
2023-01-25T14:50:43.511Z,15
2023-01-25T14:51:46.322Z,15
2023-01-25T14:52:43.619Z,15
2023-01-25T14:53:44.371Z,15
2023-01-25T14:54:43.649Z,15
2023-01-25T14:55:44.163Z,15
2023-01-25T14:56:43.199Z,15
2023-01-25T14:57:44.096Z,15
2023-01-25T14:58:59.398Z,15
2023-01-25T14:59:42.589Z,15
2023-01-25T15:00:44.654Z,15
2023-01-25T15:01:44.044Z,15
2023-01-25T15:02:43.268Z,10
2023-01-25T15:03:43.670Z,10
2023-01-25T15:04:46.301Z,10
2023-01-25T15:05:42.702Z,10
2023-01-25T15:06:44.447Z,10
2023-01-25T15:07:42.871Z,10
2023-01-25T15:08:43.483Z,10
2023-01-25T15:09:44.214Z,10
2023-01-25T15:10:43.315Z,10
2023-01-25T15:11:44.076Z,10
2023-01-25T15:12:44.925Z,10
2023-01-25T15:13:43.866Z,10
2023-01-25T15:14:45.504Z,5
2023-01-25T15:15:43.144Z,5
2023-01-25T15:16:45.231Z,5
2023-01-25T15:17:43.667Z,5
2023-01-25T15:18:43.691Z,5
2023-01-25T15:19:43.496Z,5
2023-01-25T15:20:42.774Z,5
2023-01-25T15:21:43.158Z,5
2023-01-25T15:22:44.514Z,5
2023-01-25T15:23:43.264Z,5
2023-01-25T15:25:00.815Z,5
2023-01-25T15:25:43.603Z,5
2023-01-25T15:26:43.703Z,5
2023-01-25T15:27:44.211Z,5
2023-01-25T15:28:43.838Z,5
2023-01-25T15:29:43.581Z,0
2023-01-25T15:30:44.712Z,0
2023-01-25T15:31:43.963Z,0
2023-01-25T15:32:44.171Z,0
2023-01-25T15:33:43.694Z,0
2023-01-25T15:34:44.026Z,0
2023-01-25T15:35:45.340Z,0
2023-01-25T15:36:43.296Z,0
2023-01-25T15:37:44.078Z,0
2023-01-25T15:38:44.217Z,0
2023-01-25T15:39:44.022Z,0
2023-01-25T15:40:44.753Z,0
2023-01-25T15:41:43.345Z,0
2023-01-25T15:42:44.078Z,0
2023-01-25T15:43:43.863Z,0
2023-01-25T15:44:44.853Z,0
2023-01-25T15:45:44.076Z,0
2023-01-25T15:46:44.123Z,0
2023-01-25T15:47:43.447Z,0
2023-01-25T15:48:43.850Z,0
2023-01-25T15:49:43.447Z,0
2023-01-25T15:50:44.089Z,0
2023-01-25T15:51:45.571Z,0
2023-01-25T15:52:44.044Z,0
2023-01-25T15:53:44.340Z,0
2023-01-25T15:55:01.651Z,0
2023-01-25T15:55:43.543Z,0
2023-01-25T15:56:44.244Z,0
2023-01-25T15:57:44.525Z,0
2023-01-25T15:58:44.021Z,0
2023-01-25T15:59:43.973Z,0
2023-01-25T16:00:43.407Z,0
2023-01-25T16:01:44.702Z,0
2023-01-25T16:02:45.050Z,0
2023-01-25T16:03:42.942Z,0
2023-01-25T16:04:43.694Z,0
2023-01-25T16:05:43.174Z,0
2023-01-25T16:06:43.600Z,0
2023-01-25T16:07:44.010Z,0
2023-01-25T16:08:43.249Z,0
2023-01-25T16:09:43.870Z,0
2023-01-25T16:10:43.861Z,0
2023-01-25T16:11:43.302Z,0
2023-01-25T16:12:45.309Z,0
2023-01-25T16:13:43.396Z,0
2023-01-25T16:14:44.849Z,0
2023-01-25T16:15:43.961Z,0
2023-01-25T16:16:43.826Z,0
2023-01-25T16:17:44.088Z,0
2023-01-25T16:18:43.609Z,0
2023-01-25T16:19:44.189Z,0
2023-01-25T16:20:44.327Z,0
2023-01-25T16:21:43.407Z,0
2023-01-25T16:22:43.906Z,0
2023-01-25T16:23:43.633Z,0
2023-01-25T16:24:46.263Z,0
2023-01-25T16:25:43.134Z,0
2023-01-25T16:26:43.364Z,0
2023-01-25T16:27:43.562Z,0
2023-01-25T16:28:45.389Z,0
2023-01-25T16:29:43.767Z,0
2023-01-25T16:30:44.052Z,0
2023-01-25T16:31:44.443Z,0
2023-01-25T16:32:43.426Z,0
2023-01-25T16:33:44.225Z,0
2023-01-25T16:34:44.457Z,0
2023-01-25T16:35:43.489Z,0
2023-01-25T16:36:47.273Z,0
2023-01-25T16:37:43.620Z,0
2023-01-25T16:38:44.169Z,0
2023-01-25T16:39:43.118Z,0
2023-01-25T16:40:44.681Z,0
2023-01-25T16:41:43.384Z,0
2023-01-25T16:42:43.541Z,0
2023-01-25T16:43:52.405Z,0
2023-01-25T16:44:44.309Z,0
2023-01-25T16:45:43.107Z,0
2023-01-25T16:46:43.658Z,0
2023-01-25T16:47:43.345Z,0
2023-01-25T16:48:44.428Z,0
2023-01-25T16:49:44.194Z,0
2023-01-25T16:50:43.503Z,0
2023-01-25T16:51:43.032Z,0
2023-01-25T16:52:45.898Z,0
2023-01-25T16:53:43.343Z,0
2023-01-25T16:54:43.591Z,0
2023-01-25T16:55:44.347Z,0
2023-01-25T16:56:43.588Z,0
2023-01-25T16:57:44.295Z,0
2023-01-25T16:58:44.156Z,0
2023-01-25T16:59:43.560Z,0
2023-01-25T17:00:44.273Z,0
2023-01-25T17:01:44.148Z,0
2023-01-25T17:03:02.498Z,0
2023-01-25T17:03:44.145Z,0
2023-01-25T17:04:43.323Z,0
2023-01-25T17:05:44.088Z,0
2023-01-25T17:06:44.319Z,0
2023-01-25T17:07:43.167Z,0
2023-01-25T17:08:44.435Z,0
2023-01-25T17:09:43.056Z,0
2023-01-25T17:10:43.811Z,0
2023-01-25T17:11:44.637Z,0
2023-01-25T17:12:43.838Z,0
2023-01-25T17:13:43.817Z,0
2023-01-25T17:14:43.904Z,0
2023-01-25T17:15:44.639Z,0
2023-01-25T17:16:43.796Z,0
2023-01-25T17:17:42.962Z,0
2023-01-25T17:18:44.568Z,0
2023-01-25T17:19:44.226Z,0
2023-01-25T17:20:44.089Z,0
2023-01-25T17:21:43.899Z,0
2023-01-25T17:22:43.610Z,0
2023-01-25T17:23:44.139Z,0
2023-01-25T17:24:45.268Z,0
2023-01-25T17:25:44.916Z,0
2023-01-25T17:26:44.440Z,0
2023-01-25T17:27:43.968Z,0
2023-01-25T17:28:43.878Z,0
2023-01-25T17:29:44.031Z,0
2023-01-25T17:30:44.768Z,0
2023-01-25T17:31:44.292Z,0
2023-01-25T17:32:45.247Z,0
2023-01-25T17:33:43.413Z,0
2023-01-25T17:34:44.397Z,0
2023-01-25T17:35:43.735Z,0
2023-01-25T17:36:44.235Z,0
2023-01-25T17:37:44.633Z,0
2023-01-25T17:38:44.155Z,0
2023-01-25T17:39:43.948Z,0
2023-01-25T17:40:45.087Z,0
2023-01-25T17:41:43.449Z,0
2023-01-25T17:42:43.816Z,0
2023-01-25T17:43:44.430Z,0
2023-01-25T17:44:44.107Z,0
2023-01-25T17:45:43.703Z,0
2023-01-25T17:46:43.881Z,0
2023-01-25T17:47:44.456Z,0
2023-01-25T17:48:44.569Z,0
2023-01-25T17:49:43.728Z,0
2023-01-25T17:50:44.462Z,0
2023-01-25T17:51:44.119Z,0
2023-01-25T17:52:44.860Z,0
2023-01-25T17:53:45.480Z,0
2023-01-25T17:54:43.886Z,0
2023-01-25T17:55:44.519Z,0
2023-01-25T17:56:46.469Z,0
2023-01-25T17:57:43.101Z,0
2023-01-25T17:58:44.119Z,0
2023-01-25T17:59:42.923Z,0
2023-01-25T18:00:45.138Z,0
2023-01-25T18:01:44.423Z,0
2023-01-25T18:02:44.195Z,0
2023-01-25T18:03:45.919Z,0
2023-01-25T18:04:43.995Z,0
2023-01-25T18:05:43.506Z,0
2023-01-25T18:06:44.054Z,0
2023-01-25T18:07:43.568Z,0
2023-01-25T18:08:44.254Z,0
2023-01-25T18:09:44.531Z,0
2023-01-25T18:10:43.778Z,0
2023-01-25T18:11:44.029Z,0
2023-01-25T18:12:46.401Z,0
2023-01-25T18:13:42.961Z,0
2023-01-25T18:14:43.195Z,0
2023-01-25T18:15:43.644Z,0
2023-01-25T18:16:44.157Z,0
2023-01-25T18:17:45.175Z,0
2023-01-25T18:18:44.071Z,0
2023-01-25T18:19:44.511Z,0
2023-01-25T18:20:45.473Z,0
2023-01-25T18:21:43.774Z,0
2023-01-25T18:22:45.932Z,0
2023-01-25T18:23:43.566Z,0
2023-01-25T18:24:44.567Z,0
2023-01-25T18:25:43.957Z,0
2023-01-25T18:26:43.990Z,0
2023-01-25T18:27:43.866Z,0
2023-01-25T18:28:44.183Z,0
2023-01-25T18:29:43.182Z,0
2023-01-25T18:30:45.733Z,0
2023-01-25T18:31:44.835Z,0
2023-01-25T18:32:44.233Z,0
2023-01-25T18:33:43.663Z,0
2023-01-25T18:34:43.736Z,0
2023-01-25T18:35:45.151Z,0
2023-01-25T18:36:44.799Z,0
2023-01-25T18:37:43.898Z,0
2023-01-25T18:38:44.703Z,0
2023-01-25T18:39:43.549Z,0
2023-01-25T18:40:43.846Z,0
2023-01-25T18:41:46.260Z,0
2023-01-25T18:42:45.259Z,0
2023-01-25T18:43:43.972Z,0
2023-01-25T18:44:43.354Z,0
2023-01-25T18:45:44.177Z,0
2023-01-25T18:46:44.667Z,0
2023-01-25T18:47:44.003Z,0
2023-01-25T18:48:44.389Z,0
2023-01-25T18:49:43.892Z,0
2023-01-25T18:50:44.411Z,0
2023-01-25T18:52:16.871Z,0
2023-01-25T18:52:45.252Z,0
2023-01-25T18:53:43.312Z,0
2023-01-25T18:54:44.553Z,0
2023-01-25T18:55:44.301Z,0
2023-01-25T18:56:44.332Z,0
2023-01-25T18:57:43.880Z,0
2023-01-25T18:58:43.533Z,0
2023-01-25T18:59:43.428Z,0
2023-01-25T19:00:43.661Z,0
2023-01-25T19:01:45.268Z,0
2023-01-25T19:02:43.823Z,0
2023-01-25T19:03:43.827Z,0
2023-01-25T19:04:44.430Z,0
2023-01-25T19:05:45.325Z,0
2023-01-25T19:06:44.484Z,0
2023-01-25T19:07:43.917Z,0
2023-01-25T19:08:44.511Z,0
2023-01-25T19:09:44.324Z,0
2023-01-25T19:10:44.186Z,0
2023-01-25T19:11:43.812Z,0
2023-01-25T19:12:43.937Z,0
2023-01-25T19:13:44.081Z,0
2023-01-25T19:14:45.473Z,0
2023-01-25T19:15:44.914Z,0
2023-01-25T19:16:44.250Z,0
2023-01-25T19:17:43.782Z,0
2023-01-25T19:18:44.144Z,0
2023-01-25T19:19:43.905Z,0
2023-01-25T19:20:44.386Z,0
2023-01-25T19:21:43.904Z,0
2023-01-25T19:22:44.266Z,0
2023-01-25T19:23:44.060Z,0
2023-01-25T19:24:43.796Z,0
2023-01-25T19:25:44.693Z,0
2023-01-25T19:26:43.948Z,0
2023-01-25T19:27:43.806Z,0
2023-01-25T19:28:44.624Z,0
2023-01-25T19:29:43.849Z,0
2023-01-25T19:30:44.682Z,0
2023-01-25T19:31:45.286Z,0
2023-01-25T19:32:43.895Z,0
2023-01-25T19:33:44.580Z,0
2023-01-25T19:34:44.483Z,0
2023-01-25T19:35:43.608Z,0
2023-01-25T19:36:44.738Z,0
2023-01-25T19:37:43.892Z,0
2023-01-25T19:38:44.355Z,0
2023-01-25T19:39:44.666Z,0
2023-01-25T19:40:43.861Z,0
2023-01-25T19:41:43.463Z,0
2023-01-25T19:42:43.619Z,0
2023-01-25T19:43:43.834Z,0
2023-01-25T19:44:43.927Z,0
2023-01-25T19:45:43.316Z,0
2023-01-25T19:46:44.906Z,0
2023-01-25T19:47:44.005Z,0
2023-01-25T19:48:43.625Z,0
2023-01-25T19:49:44.721Z,0
2023-01-25T19:50:44.625Z,0
2023-01-25T19:51:44.049Z,0
2023-01-25T19:52:44.854Z,0
2023-01-25T19:53:43.700Z,0
2023-01-25T19:54:44.479Z,0
2023-01-25T19:55:44.700Z,0
2023-01-25T19:56:44.028Z,0
2023-01-25T19:57:44.270Z,0
2023-01-25T19:58:44.191Z,0
2023-01-25T19:59:43.869Z,0
2023-01-25T20:00:43.466Z,0
2023-01-25T20:01:44.460Z,0
2023-01-25T20:02:44.924Z,0
2023-01-25T20:03:44.078Z,0
2023-01-25T20:04:44.782Z,0
2023-01-25T20:05:44.611Z,0
2023-01-25T20:06:43.949Z,0
2023-01-25T20:07:45.853Z,0
2023-01-25T20:08:44.815Z,0
2023-01-25T20:09:43.738Z,0
2023-01-25T20:10:44.860Z,0
2023-01-25T20:11:44.350Z,0
2023-01-25T20:12:43.121Z,0
2023-01-25T20:13:44.232Z,0
2023-01-25T20:14:44.273Z,0
2023-01-25T20:15:44.079Z,0
2023-01-25T20:16:44.497Z,0
2023-01-25T20:17:43.632Z,0
2023-01-25T20:18:44.404Z,0
2023-01-25T20:19:44.199Z,0
2023-01-25T20:20:44.290Z,0
2023-01-25T20:21:45.063Z,0
2023-01-25T20:22:44.832Z,0
2023-01-25T20:23:44.233Z,0
2023-01-25T20:24:45.019Z,0
2023-01-25T20:25:43.508Z,0
2023-01-25T20:26:45.985Z,0
2023-01-25T20:27:44.365Z,0
2023-01-25T20:28:43.586Z,0
2023-01-25T20:29:44.300Z,0
2023-01-25T20:30:45.592Z,0
2023-01-25T20:31:44.524Z,0
2023-01-25T20:32:44.336Z,0
2023-01-25T20:33:44.095Z,0
2023-01-25T20:34:45.917Z,0
2023-01-25T20:35:44.166Z,0
2023-01-25T20:36:43.921Z,0
2023-01-25T20:37:44.527Z,0
2023-01-25T20:38:44.002Z,0
2023-01-25T20:39:43.768Z,0
2023-01-25T20:40:45.784Z,0
2023-01-25T20:41:43.956Z,0
2023-01-25T20:42:44.713Z,0
2023-01-25T20:43:43.861Z,0
2023-01-25T20:44:44.007Z,0
2023-01-25T20:45:44.509Z,0
2023-01-25T20:46:45.243Z,0
2023-01-25T20:47:44.415Z,0
2023-01-25T20:48:45.114Z,0
2023-01-25T20:49:44.083Z,0
2023-01-25T20:50:44.781Z,0
2023-01-25T20:51:44.241Z,0
2023-01-25T20:52:44.207Z,0
2023-01-25T20:53:43.914Z,0
2023-01-25T20:54:43.951Z,0
2023-01-25T20:55:44.544Z,0
2023-01-25T20:56:43.773Z,0
2023-01-25T20:57:44.063Z,0
2023-01-25T20:58:45.041Z,0
2023-01-25T20:59:43.943Z,0
2023-01-25T21:00:43.854Z,0
2023-01-25T21:01:44.514Z,0
2023-01-25T21:02:44.921Z,0
2023-01-25T21:03:43.804Z,0
2023-01-25T21:04:43.600Z,0
2023-01-25T21:05:43.953Z,0
2023-01-25T21:06:44.562Z,0
2023-01-25T21:07:43.481Z,0
2023-01-25T21:08:44.416Z,0
2023-01-25T21:09:47.139Z,0
2023-01-25T21:10:43.982Z,0
2023-01-25T21:11:44.851Z,0
2023-01-25T21:12:44.195Z,0
2023-01-25T21:13:43.741Z,0
2023-01-25T21:14:44.792Z,0
2023-01-25T21:15:43.615Z,0
2023-01-25T21:16:44.598Z,0
2023-01-25T21:17:44.701Z,0
2023-01-25T21:18:44.355Z,0
2023-01-25T21:19:44.222Z,0
2023-01-25T21:20:44.210Z,0
2023-01-25T21:21:44.077Z,0
2023-01-25T21:22:44.401Z,0
2023-01-25T21:23:43.531Z,0
2023-01-25T21:24:44.058Z,0
2023-01-25T21:25:46.036Z,0
2023-01-25T21:26:44.024Z,0
2023-01-25T21:27:44.599Z,0
2023-01-25T21:28:43.843Z,0
2023-01-25T21:29:44.024Z,0
2023-01-25T21:30:44.813Z,0
2023-01-25T21:31:44.399Z,0
2023-01-25T21:32:44.171Z,0
2023-01-25T21:33:44.153Z,0
2023-01-25T21:34:43.778Z,0
2023-01-25T21:35:44.013Z,0
2023-01-25T21:36:44.258Z,0
2023-01-25T21:37:44.033Z,0
2023-01-25T21:38:44.403Z,0
2023-01-25T21:39:44.051Z,0
2023-01-25T21:40:43.836Z,0
2023-01-25T21:41:44.083Z,0
2023-01-25T21:42:44.119Z,0
2023-01-25T21:43:44.168Z,0
2023-01-25T21:44:44.251Z,0
2023-01-25T21:45:44.529Z,0
2023-01-25T21:47:23.447Z,0
2023-01-25T21:47:43.857Z,0
2023-01-25T21:48:43.827Z,0
2023-01-25T21:49:45.106Z,0
2023-01-25T21:50:44.718Z,0
2023-01-25T21:51:44.684Z,0
2023-01-25T21:52:46.257Z,0
2023-01-25T21:53:43.481Z,0
2023-01-25T21:54:45.222Z,0
2023-01-25T21:55:44.306Z,0
2023-01-25T21:56:44.313Z,0
2023-01-25T21:57:44.928Z,0
2023-01-25T21:58:44.206Z,0
2023-01-25T21:59:44.133Z,0
2023-01-25T22:00:44.473Z,0
2023-01-25T22:01:44.277Z,0
2023-01-25T22:02:45.934Z,0
2023-01-25T22:03:44.190Z,0
2023-01-25T22:04:44.889Z,0
2023-01-25T22:05:44.189Z,0
2023-01-25T22:06:44.219Z,0
2023-01-25T22:07:44.597Z,0
2023-01-25T22:08:44.268Z,0
2023-01-25T22:09:44.679Z,0
2023-01-25T22:10:43.952Z,0
2023-01-25T22:11:43.935Z,0
2023-01-25T22:12:45.042Z,0
2023-01-25T22:13:44.152Z,0
2023-01-25T22:14:44.323Z,0
2023-01-25T22:15:44.713Z,0
2023-01-25T22:16:44.151Z,0
2023-01-25T22:17:43.876Z,0
2023-01-25T22:18:45.616Z,0
2023-01-25T22:19:44.431Z,0
2023-01-25T22:20:44.255Z,0
2023-01-25T22:21:44.557Z,0
2023-01-25T22:22:45.141Z,0
2023-01-25T22:23:44.541Z,0
2023-01-25T22:24:45.144Z,0
2023-01-25T22:25:45.077Z,0
2023-01-25T22:26:44.859Z,0
2023-01-25T22:27:43.704Z,0
2023-01-25T22:28:44.019Z,0
2023-01-25T22:29:44.260Z,0
2023-01-25T22:30:45.370Z,0
2023-01-25T22:31:46.181Z,0
2023-01-25T22:32:44.964Z,0
2023-01-25T22:33:44.517Z,0
2023-01-25T22:34:45.496Z,0
2023-01-25T22:35:43.960Z,0
2023-01-25T22:36:45.111Z,0
2023-01-25T22:37:44.330Z,0
2023-01-25T22:38:44.674Z,0
2023-01-25T22:39:45.217Z,0
2023-01-25T22:40:44.507Z,0
2023-01-25T22:41:44.362Z,0
2023-01-25T22:42:44.431Z,0
2023-01-25T22:43:43.921Z,0
2023-01-25T22:44:45.766Z,0
2023-01-25T22:45:44.020Z,0
2023-01-25T22:46:44.277Z,0
2023-01-25T22:47:44.005Z,0
2023-01-25T22:48:45.688Z,0
2023-01-25T22:49:43.963Z,0
2023-01-25T22:50:44.797Z,0
2023-01-25T22:51:44.234Z,0
2023-01-25T22:52:45.175Z,0
2023-01-25T22:53:44.058Z,0
2023-01-25T22:54:44.807Z,0
2023-01-25T22:55:45.410Z,0
2023-01-25T22:56:45.386Z,0
2023-01-25T22:57:44.089Z,0
2023-01-25T22:58:45.054Z,0
2023-01-25T22:59:44.073Z,0
2023-01-25T23:00:45.053Z,0
2023-01-25T23:01:44.613Z,0
2023-01-25T23:02:46.397Z,0
2023-01-25T23:03:44.927Z,0
2023-01-25T23:04:44.911Z,0
2023-01-25T23:05:45.467Z,0
2023-01-25T23:06:44.738Z,0
2023-01-25T23:07:44.361Z,0
2023-01-25T23:08:45.694Z,0
2023-01-25T23:09:44.215Z,0
2023-01-25T23:10:45.128Z,0
2023-01-25T23:11:44.494Z,0
2023-01-25T23:12:44.425Z,0
2023-01-25T23:13:44.443Z,0
2023-01-25T23:14:44.408Z,0
2023-01-25T23:15:46.497Z,0
2023-01-25T23:16:45.778Z,0
2023-01-25T23:17:44.134Z,0
2023-01-25T23:18:44.010Z,0